Time;durP1;ratioP1;P1;durP2;ratioP2;P2;SDS_P1;SDS_P2;PMS_P1;PMS_P2;Temp;Humidity;BMP_temperature;BMP_pressure;BME280_temperature;BME280_humidity;BME280_pressure;Samples;Min_cycle;Max_cycle;Signal;HPM_P1;HPM_P2
2022/10/28 00:00:26;;;;;;;1999.90;999.90;;;17.90;99.90;;;;;;5026235;28;20474;-68
2022/10/28 00:02:53;;;;;;;1999.90;999.90;;;17.90;99.90;;;;;;5027243;28;20479;-68
2022/10/28 00:05:21;;;;;;;1999.90;999.90;;;17.60;99.90;;;;;;5025815;28;20818;-69
2022/10/28 00:07:48;;;;;;;1999.90;999.90;;;17.30;99.90;;;;;;5026460;28;21014;-69
2022/10/28 00:10:14;;;;;;;1999.90;999.90;;;17.10;99.90;;;;;;5024499;28;20467;-69
2022/10/28 00:12:41;;;;;;;1999.90;999.90;;;16.80;99.90;;;;;;5028273;28;20459;-69
2022/10/28 00:15:09;;;;;;;1999.90;999.90;;;16.70;99.90;;;;;;5027491;28;20451;-68
2022/10/28 00:17:35;;;;;;;1999.90;999.90;;;16.50;99.90;;;;;;5027003;28;20487;-68
2022/10/28 00:20:03;;;;;;;1999.90;999.90;;;16.40;99.90;;;;;;5022410;28;20498;-68
2022/10/28 00:22:31;;;;;;;1999.90;999.90;;;16.40;99.90;;;;;;5025599;28;20462;-69
2022/10/28 00:24:57;;;;;;;1999.90;999.90;;;16.40;99.90;;;;;;5026775;28;20490;-69
2022/10/28 00:27:24;;;;;;;1999.90;999.90;;;16.40;99.90;;;;;;5025631;28;20480;-68
2022/10/28 00:29:51;;;;;;;1999.90;999.90;;;16.20;99.90;;;;;;5021983;28;20472;-68
2022/10/28 00:32:17;;;;;;;1999.90;999.90;;;16.20;99.90;;;;;;5026084;28;20464;-69
2022/10/28 00:34:44;;;;;;;1999.90;999.90;;;16.20;99.90;;;;;;5024965;28;20458;-68
2022/10/28 00:37:11;;;;;;;1999.90;999.90;;;16.10;99.90;;;;;;5025848;28;20501;-68
2022/10/28 00:39:39;;;;;;;1999.90;999.90;;;16.30;99.90;;;;;;5027835;28;20883;-68
2022/10/28 00:42:06;;;;;;;1999.90;999.90;;;16.70;99.90;;;;;;5029313;28;20956;-68
2022/10/28 00:44:54;;;;;;;1999.90;999.90;;;16.60;99.90;;;;;;5030093;28;20483;-68
2022/10/28 00:47:31;;;;;;;1999.90;999.90;;;16.60;99.90;;;;;;5028169;28;20869;-68
2022/10/28 00:50:03;;;;;;;1999.90;999.90;;;16.60;99.90;;;;;;5027492;28;20470;-68
2022/10/28 00:52:31;;;;;;;1999.90;999.90;;;16.50;99.90;;;;;;5025692;28;20459;-68
2022/10/28 00:55:01;;;;;;;1999.90;999.90;;;16.40;99.90;;;;;;5028534;28;20463;-68
2022/10/28 00:57:33;;;;;;;1999.90;999.90;;;16.30;99.90;;;;;;5029185;28;20859;-68
2022/10/28 01:00:03;;;;;;;1999.90;999.90;;;16.60;99.90;;;;;;5028786;28;20466;-71
2022/10/28 01:02:32;;;;;;;1999.90;999.90;;;17.00;99.90;;;;;;5028042;28;20471;-68
2022/10/28 01:04:59;;;;;;;1999.90;999.90;;;17.10;99.90;;;;;;5029407;28;20474;-69
2022/10/28 01:07:26;;;;;;;1999.90;999.90;;;17.30;99.90;;;;;;5021105;28;20893;-69
2022/10/28 01:09:52;;;;;;;1999.90;999.90;;;17.50;99.90;;;;;;5028575;28;20474;-68
2022/10/28 01:12:29;;;;;;;1999.90;999.90;;;17.60;99.90;;;;;;5029474;28;20471;-68
2022/10/28 01:15:05;;;;;;;1999.90;999.90;;;17.80;99.90;;;;;;5028332;28;20463;-68
2022/10/28 01:17:53;;;;;;;1999.90;999.90;;;17.70;99.90;;;;;;5027808;28;21021;-69
2022/10/28 01:20:52;;;;;;;1999.90;999.90;;;17.50;99.90;;;;;;5029689;28;20525;-67
2022/10/28 01:23:26;;;;;;;1999.90;999.90;;;17.30;99.90;;;;;;5027196;28;20958;-68
2022/10/28 01:26:21;;;;;;;1999.90;999.90;;;17.30;99.90;;;;;;5025245;28;20463;-69
2022/10/28 01:29:36;;;;;;;1999.90;999.90;;;17.30;99.90;;;;;;5026010;28;20489;-69
2022/10/28 01:32:13;;;;;;;1999.90;999.90;;;17.50;99.90;;;;;;5025067;28;20841;-68
2022/10/28 01:34:48;;;;;;;1999.90;999.90;;;17.30;99.90;;;;;;5028284;28;20463;-68
2022/10/28 01:37:19;;;;;;;1999.90;999.90;;;17.30;99.90;;;;;;5026612;28;20485;-70
2022/10/28 01:39:52;;;;;;;1999.90;999.90;;;17.30;99.90;;;;;;5029352;28;20471;-68
2022/10/28 01:42:26;;;;;;;1999.90;999.90;;;17.60;99.90;;;;;;5029188;28;20456;-69
2022/10/28 01:45:02;;;;;;;1999.90;999.90;;;17.60;99.90;;;;;;5027105;28;20490;-69
2022/10/28 01:47:37;;;;;;;1999.90;999.90;;;17.70;99.90;;;;;;5027275;28;20498;-68
2022/10/28 01:50:08;;;;;;;1999.90;999.90;;;17.70;99.90;;;;;;5028015;28;20454;-69
2022/10/28 01:52:37;;;;;;;1999.90;999.90;;;17.70;99.90;;;;;;5029234;28;20463;-68
2022/10/28 01:55:10;;;;;;;1999.90;999.90;;;17.60;99.90;;;;;;5024672;28;20456;-68
2022/10/28 01:57:39;;;;;;;1999.90;999.90;;;17.70;99.90;;;;;;5022936;28;20487;-68
2022/10/28 02:00:07;;;;;;;1999.90;999.90;;;17.70;99.90;;;;;;5026664;28;20474;-69
2022/10/28 02:02:37;;;;;;;1999.90;999.90;;;17.60;99.90;;;;;;5029618;28;20491;-69
2022/10/28 02:05:06;;;;;;;1999.90;999.90;;;17.50;99.90;;;;;;5025152;28;20896;-68
2022/10/28 02:07:33;;;;;;;1999.90;999.90;;;17.50;99.90;;;;;;5026889;28;21109;-68
2022/10/28 02:10:08;;;;;;;1999.90;999.90;;;17.30;99.90;;;;;;5027479;28;20849;-70
2022/10/28 02:12:37;;;;;;;1999.90;999.90;;;17.40;99.90;;;;;;5028818;28;20982;-68
2022/10/28 02:15:19;;;;;;;1999.90;999.90;;;17.30;99.90;;;;;;5023907;28;20467;-68
2022/10/28 02:18:01;;;;;;;1999.90;999.90;;;17.20;99.90;;;;;;5023983;28;20566;-69
2022/10/28 02:20:35;;;;;;;1999.90;999.90;;;17.20;99.90;;;;;;5028766;28;20833;-68
2022/10/28 02:23:13;;;;;;;1999.90;999.90;;;17.30;99.90;;;;;;5027549;28;20467;-69
2022/10/28 02:25:46;;;;;;;1999.90;999.90;;;17.50;99.90;;;;;;5018156;28;20471;-68
2022/10/28 02:28:21;;;;;;;1999.90;999.90;;;17.50;99.90;;;;;;5025073;28;20487;-69
2022/10/28 02:30:53;;;;;;;1999.90;999.90;;;17.50;99.90;;;;;;5027223;28;20977;-68
2022/10/28 02:33:25;;;;;;;1999.90;999.90;;;17.90;99.90;;;;;;5027181;28;20486;-68
2022/10/28 02:35:57;;;;;;;1999.90;999.90;;;17.90;99.90;;;;;;5027001;28;20467;-69
2022/10/28 02:38:30;;;;;;;1999.90;999.90;;;18.20;99.90;;;;;;5026409;28;20479;-68
2022/10/28 02:41:01;;;;;;;1999.90;999.90;;;18.60;99.90;;;;;;5028694;28;20824;-68
2022/10/28 02:43:32;;;;;;;1999.90;999.90;;;19.00;99.90;;;;;;5025768;28;20460;-68
2022/10/28 02:46:02;;;;;;;1999.90;999.90;;;18.70;99.90;;;;;;5024663;28;20471;-69
2022/10/28 02:48:35;;;;;;;1999.90;999.90;;;18.70;99.90;;;;;;5025315;28;20499;-69
2022/10/28 02:51:07;;;;;;;1999.90;999.90;;;18.50;99.90;;;;;;5025279;28;20463;-69
2022/10/28 02:53:46;;;;;;;1999.90;999.90;;;18.30;99.90;;;;;;5026113;28;20471;-69
2022/10/28 02:56:15;;;;;;;1999.90;999.90;;;18.10;99.90;;;;;;5025703;28;20471;-68
2022/10/28 02:58:42;;;;;;;1999.90;999.90;;;18.10;99.90;;;;;;5021164;28;20475;-68
2022/10/28 03:01:09;;;;;;;1999.90;999.90;;;18.00;99.90;;;;;;5025244;28;20577;-68
2022/10/28 03:03:37;;;;;;;1999.90;999.90;;;18.00;99.90;;;;;;5027585;28;20471;-68
2022/10/28 03:06:04;;;;;;;1999.90;999.90;;;17.90;99.90;;;;;;5028190;28;20495;-68
2022/10/28 03:08:31;;;;;;;1999.90;999.90;;;17.70;99.90;;;;;;5028708;28;20483;-68
2022/10/28 03:10:57;;;;;;;1999.90;999.90;;;17.70;99.90;;;;;;5028698;28;20463;-69
2022/10/28 03:13:24;;;;;;;1999.90;999.90;;;17.60;99.90;;;;;;5029449;28;20459;-68
2022/10/28 03:15:51;;;;;;;1999.90;999.90;;;17.50;99.90;;;;;;5026328;28;20473;-68
2022/10/28 03:18:17;;;;;;;1999.90;999.90;;;17.50;99.90;;;;;;5028844;28;20502;-69
2022/10/28 03:20:46;;;;;;;1999.90;999.90;;;17.50;99.90;;;;;;5027450;28;20455;-68
2022/10/28 03:23:13;;;;;;;1999.90;999.90;;;17.60;99.90;;;;;;5026830;28;20467;-68
2022/10/28 03:25:40;;;;;;;1999.90;999.90;;;17.50;99.90;;;;;;5028066;28;20475;-69
2022/10/28 03:28:07;;;;;;;1999.90;999.90;;;17.40;99.90;;;;;;5026941;28;20482;-68
2022/10/28 03:30:33;;;;;;;1999.90;999.90;;;17.40;99.90;;;;;;5026563;28;20471;-68
2022/10/28 03:33:00;;;;;;;1999.90;999.90;;;17.40;99.90;;;;;;5028150;28;20963;-68
2022/10/28 03:35:27;;;;;;;1999.90;999.90;;;17.40;99.90;;;;;;5028309;28;20475;-69
2022/10/28 03:37:55;;;;;;;1999.90;999.90;;;17.40;99.90;;;;;;5029346;28;20490;-69
2022/10/28 03:40:21;;;;;;;1999.90;999.90;;;17.40;99.90;;;;;;5027801;28;20463;-69
2022/10/28 03:42:48;;;;;;;1999.90;999.90;;;17.40;99.90;;;;;;5029000;28;20820;-68
2022/10/28 03:45:15;;;;;;;1999.90;999.90;;;17.30;99.90;;;;;;5027976;28;20483;-69
2022/10/28 03:47:42;;;;;;;1999.90;999.90;;;17.10;99.90;;;;;;5023707;28;20491;-69
2022/10/28 03:50:09;;;;;;;1999.90;999.90;;;17.20;99.90;;;;;;5026439;28;20473;-68
2022/10/28 03:52:36;;;;;;;1999.90;999.90;;;17.10;99.90;;;;;;5029056;28;20470;-69
2022/10/28 03:55:05;;;;;;;1999.90;999.90;;;17.10;99.90;;;;;;5026739;28;20470;-68
2022/10/28 03:57:33;;;;;;;1999.90;999.90;;;16.90;99.90;;;;;;5028569;28;20530;-68
2022/10/28 03:59:59;;;;;;;1999.90;999.90;;;16.80;99.90;;;;;;5026391;28;20857;-68
2022/10/28 04:02:26;;;;;;;1999.90;999.90;;;16.80;99.90;;;;;;5028960;28;20966;-69
2022/10/28 04:04:53;;;;;;;1999.90;999.90;;;16.80;99.90;;;;;;5028042;28;20494;-68
2022/10/28 04:07:20;;;;;;;1999.90;999.90;;;16.80;99.90;;;;;;5026574;28;20483;-68
2022/10/28 04:09:50;;;;;;;1999.90;999.90;;;16.90;99.90;;;;;;5028474;28;20474;-68
2022/10/28 04:12:18;;;;;;;1999.90;999.90;;;16.90;99.90;;;;;;5027659;28;22210;-68
2022/10/28 04:14:46;;;;;;;1999.90;999.90;;;16.80;99.90;;;;;;5031594;28;20979;-68
2022/10/28 04:17:12;;;;;;;1999.90;999.90;;;16.80;99.90;;;;;;5030418;28;21003;-68
2022/10/28 04:19:39;;;;;;;1999.90;999.90;;;16.80;99.90;;;;;;5030234;28;20469;-68
2022/10/28 04:22:06;;;;;;;1999.90;999.90;;;17.00;99.90;;;;;;5030882;28;20463;-68
2022/10/28 04:24:33;;;;;;;1999.90;999.90;;;17.00;99.90;;;;;;5031850;28;20502;-68
2022/10/28 04:27:00;;;;;;;1999.90;999.90;;;17.10;99.90;;;;;;5031565;28;20463;-68
2022/10/28 04:29:28;;;;;;;1999.90;999.90;;;17.20;99.90;;;;;;5030971;28;20471;-70
2022/10/28 04:31:55;;;;;;;1999.90;999.90;;;17.10;99.90;;;;;;5029016;28;20463;-68
2022/10/28 04:34:21;;;;;;;1999.90;999.90;;;17.10;99.90;;;;;;5032430;28;20474;-67
2022/10/28 04:36:48;;;;;;;1999.90;999.90;;;17.10;99.90;;;;;;5031024;28;20467;-68
2022/10/28 04:39:15;;;;;;;1999.90;999.90;;;17.20;99.90;;;;;;5029434;28;20467;-68
2022/10/28 04:41:42;;;;;;;1999.90;999.90;;;17.20;99.90;;;;;;5030773;28;20475;-69
2022/10/28 04:44:08;;;;;;;1999.90;999.90;;;17.20;99.90;;;;;;5030920;28;20466;-69
2022/10/28 04:46:37;;;;;;;1999.90;999.90;;;17.10;99.90;;;;;;5032018;28;20498;-68
2022/10/28 04:49:04;;;;;;;1999.90;999.90;;;17.00;99.90;;;;;;5031908;28;20490;-69
2022/10/28 04:51:30;;;;;;;1999.90;999.90;;;16.90;99.90;;;;;;5031651;28;20469;-69
2022/10/28 04:53:57;;;;;;;1999.90;999.90;;;16.80;99.90;;;;;;5031945;28;20467;-69
2022/10/28 04:56:24;;;;;;;1999.90;999.90;;;16.80;99.90;;;;;;5030305;28;20967;-69
2022/10/28 04:58:50;;;;;;;1999.90;999.90;;;16.90;99.90;;;;;;5031826;28;20479;-69
2022/10/28 05:01:17;;;;;;;1999.90;999.90;;;16.80;99.90;;;;;;5030870;28;20462;-68
2022/10/28 05:03:45;;;;;;;1999.90;999.90;;;16.80;99.90;;;;;;5030460;28;20451;-69
2022/10/28 05:06:12;;;;;;;1999.90;999.90;;;16.80;99.90;;;;;;5029601;28;20487;-69
2022/10/28 05:08:39;;;;;;;1999.90;999.90;;;17.10;99.90;;;;;;5030575;28;20836;-68
2022/10/28 05:11:05;;;;;;;1999.90;999.90;;;16.70;99.90;;;;;;5029686;28;20471;-69
2022/10/28 05:13:32;;;;;;;1999.90;999.90;;;16.70;99.90;;;;;;5029197;28;20498;-69
2022/10/28 05:15:59;;;;;;;1999.90;999.90;;;16.60;99.90;;;;;;5031375;28;20463;-68
2022/10/28 05:18:26;;;;;;;1999.90;999.90;;;16.60;99.90;;;;;;5030123;28;20479;-69
2022/10/28 05:20:54;;;;;;;1999.90;999.90;;;17.00;99.90;;;;;;5030864;28;20486;-68
2022/10/28 05:23:21;;;;;;;1999.90;999.90;;;16.70;99.90;;;;;;5030558;28;20478;-69
2022/10/28 05:25:48;;;;;;;1999.90;999.90;;;16.40;99.90;;;;;;5025784;28;20483;-69
2022/10/28 05:28:15;;;;;;;1999.90;999.90;;;16.40;99.90;;;;;;5029927;28;20486;-68
2022/10/28 05:30:42;;;;;;;1999.90;999.90;;;16.40;99.90;;;;;;5030193;28;20476;-69
2022/10/28 05:33:10;;;;;;;1999.90;999.90;;;16.50;99.90;;;;;;5030624;28;20539;-69
2022/10/28 05:35:36;;;;;;;1999.90;999.90;;;16.70;99.90;;;;;;5030776;28;20510;-69
2022/10/28 05:38:05;;;;;;;1999.90;999.90;;;16.70;99.90;;;;;;5029885;28;21017;-68
2022/10/28 05:40:32;;;;;;;1999.90;999.90;;;16.70;99.90;;;;;;5029268;28;20499;-69
2022/10/28 05:42:59;;;;;;;1999.90;999.90;;;16.70;99.90;;;;;;5030240;28;20862;-68
2022/10/28 05:45:26;;;;;;;1999.90;999.90;;;16.70;99.90;;;;;;5028092;28;20490;-69
2022/10/28 05:47:53;;;;;;;1999.90;999.90;;;16.70;99.90;;;;;;5028623;28;21037;-69
2022/10/28 05:50:20;;;;;;;1999.90;999.90;;;16.80;99.90;;;;;;5028497;28;21086;-69
2022/10/28 05:52:48;;;;;;;1999.90;999.90;;;16.80;99.90;;;;;;5028890;28;20467;-69
2022/10/28 05:55:18;;;;;;;1999.90;999.90;;;16.80;99.90;;;;;;5024773;28;20467;-69
2022/10/28 05:57:45;;;;;;;1999.90;999.90;;;16.80;99.90;;;;;;5029457;28;20491;-69
2022/10/28 06:00:13;;;;;;;1999.90;999.90;;;16.80;99.90;;;;;;5029739;28;20481;-69
2022/10/28 06:02:40;;;;;;;1999.90;999.90;;;16.70;99.90;;;;;;5029726;28;20528;-68
2022/10/28 06:05:07;;;;;;;1999.90;999.90;;;16.60;99.90;;;;;;5028099;28;20498;-69
2022/10/28 06:07:34;;;;;;;1999.90;999.90;;;16.60;99.90;;;;;;5029248;28;22040;-69
2022/10/28 06:10:02;;;;;;;1999.90;999.90;;;16.50;99.90;;;;;;5029917;28;20467;-69
2022/10/28 06:12:30;;;;;;;1999.90;999.90;;;16.50;99.90;;;;;;5029744;28;20463;-69
2022/10/28 06:14:57;;;;;;;1999.90;999.90;;;16.40;99.90;;;;;;5029219;28;20467;-69
2022/10/28 06:17:24;;;;;;;1999.90;999.90;;;16.40;99.90;;;;;;5029337;28;20487;-68
2022/10/28 06:19:51;;;;;;;1999.90;999.90;;;16.30;99.90;;;;;;5025046;28;20467;-68
2022/10/28 06:22:18;;;;;;;1999.90;999.90;;;16.20;99.90;;;;;;5027878;28;20463;-68
2022/10/28 06:24:45;;;;;;;1999.90;999.90;;;16.20;99.90;;;;;;5028659;28;20469;-69
2022/10/28 06:27:12;;;;;;;1999.90;999.90;;;16.20;99.90;;;;;;5028230;28;20494;-68
2022/10/28 06:29:40;;;;;;;1999.90;999.90;;;16.60;99.90;;;;;;5029642;28;20466;-69
2022/10/28 06:32:09;;;;;;;1999.90;999.90;;;16.40;99.90;;;;;;5026649;28;20472;-69
2022/10/28 06:34:37;;;;;;;1999.90;999.90;;;16.30;99.90;;;;;;5026634;28;20493;-69
2022/10/28 06:37:05;;;;;;;1999.90;999.90;;;16.40;99.90;;;;;;5027682;28;20459;-68
2022/10/28 06:39:33;;;;;;;1999.90;999.90;;;16.60;99.90;;;;;;5027306;28;20463;-69
2022/10/28 06:41:59;;;;;;;1999.90;999.90;;;16.70;99.90;;;;;;5022140;28;20499;-68
2022/10/28 06:44:26;;;;;;;1999.90;999.90;;;17.30;99.90;;;;;;5025429;28;20463;-68
2022/10/28 06:46:55;;;;;;;1999.90;999.90;;;17.60;99.90;;;;;;5026678;28;20562;-68
2022/10/28 06:49:21;;;;;;;1999.90;999.90;;;17.90;99.90;;;;;;5017818;28;20467;-68
2022/10/28 06:51:48;;;;;;;1999.90;999.90;;;17.80;99.90;;;;;;5029346;28;20964;-68
2022/10/28 06:54:15;;;;;;;1999.90;999.90;;;17.50;99.90;;;;;;5023758;28;20467;-67
2022/10/28 06:56:44;;;;;;;1999.90;999.90;;;17.20;99.90;;;;;;5023280;28;20466;-68
2022/10/28 06:59:11;;;;;;;1999.90;999.90;;;17.10;99.90;;;;;;5024129;28;20479;-68
2022/10/28 07:01:37;;;;;;;1999.90;999.90;;;17.00;99.90;;;;;;5021897;28;20483;-68
2022/10/28 07:04:06;;;;;;;1999.90;999.90;;;17.00;99.90;;;;;;5024004;28;20447;-68
2022/10/28 07:06:33;;;;;;;1999.90;999.90;;;17.10;99.90;;;;;;5017108;28;20498;-67
2022/10/28 07:09:00;;;;;;;1999.90;999.90;;;17.70;99.90;;;;;;5028203;28;20483;-68
2022/10/28 07:11:27;;;;;;;1999.90;999.90;;;17.90;99.90;;;;;;5021125;28;20464;-67
2022/10/28 07:13:54;;;;;;;1999.90;999.90;;;18.90;99.90;;;;;;5025177;28;20496;-67
2022/10/28 07:16:21;;;;;;;1999.90;999.90;;;19.50;99.90;;;;;;5024302;28;20463;-67
2022/10/28 07:18:48;;;;;;;1999.90;999.90;;;20.10;99.90;;;;;;5019722;28;20869;-68
2022/10/28 07:21:17;;;;;;;1999.90;999.90;;;20.60;99.90;;;;;;5018631;28;20944;-68
2022/10/28 07:23:46;;;;;;;1999.90;999.90;;;21.10;99.90;;;;;;5010550;28;20530;-70
2022/10/28 07:26:12;;;;;;;1999.90;999.90;;;21.50;99.90;;;;;;5013078;28;20489;-71
2022/10/28 07:28:41;;;;;;;1999.90;999.90;;;21.90;99.90;;;;;;5018597;28;20495;-71
2022/10/28 07:31:08;;;;;;;1999.90;999.90;;;22.10;99.90;;;;;;5025153;28;21191;-71
2022/10/28 07:33:35;;;;;;;1999.90;999.90;;;22.50;99.90;;;;;;5014275;28;20466;-71
2022/10/28 07:36:04;;;;;;;1999.90;999.90;;;22.60;99.40;;;;;;5020366;28;20813;-71
2022/10/28 07:38:34;;;;;;;1999.90;999.90;;;22.80;99.00;;;;;;5024704;28;20511;-71
2022/10/28 07:41:04;;;;;;;1999.90;999.90;;;23.00;98.10;;;;;;5020097;28;21122;-70
2022/10/28 07:43:31;;;;;;;1999.90;999.90;;;23.10;97.80;;;;;;5020774;28;20466;-70
2022/10/28 07:45:58;;;;;;;1999.90;999.90;;;23.30;97.40;;;;;;5025055;28;20488;-70
2022/10/28 07:48:24;;;;;;;1999.90;999.90;;;23.50;97.10;;;;;;5018693;28;21023;-70
2022/10/28 07:50:51;;;;;;;1999.90;999.90;;;23.80;95.90;;;;;;5021752;28;20463;-70
2022/10/28 07:53:18;;;;;;;1999.90;999.90;;;23.80;96.00;;;;;;5023509;28;20463;-71
2022/10/28 07:55:55;;;;;;;1999.90;999.90;;;23.90;95.80;;;;;;5027996;28;20466;-70
2022/10/28 07:58:21;;;;;;;1999.90;999.90;;;23.80;95.50;;;;;;5028011;28;20486;-71
2022/10/28 08:00:48;;;;;;;1999.90;999.90;;;23.90;95.70;;;;;;5028211;28;20467;-70
2022/10/28 08:03:15;;;;;;;1999.90;999.90;;;24.00;95.10;;;;;;5026444;28;20461;-71
2022/10/28 08:05:42;;;;;;;1999.90;999.90;;;24.00;95.00;;;;;;5028451;28;20466;-71
2022/10/28 08:08:08;;;;;;;1999.90;999.90;;;24.00;94.80;;;;;;5032091;28;20485;-71
2022/10/28 08:10:35;;;;;;;1999.90;999.90;;;24.10;94.80;;;;;;5027502;28;20466;-70
2022/10/28 08:13:05;;;;;;;1999.90;999.90;;;24.00;95.30;;;;;;5018404;28;20447;-70
2022/10/28 08:15:31;;;;;;;1999.90;999.90;;;24.00;94.50;;;;;;5027786;28;20521;-71
2022/10/28 08:17:58;;;;;;;1999.90;999.90;;;24.00;94.50;;;;;;5021165;28;20466;-70
2022/10/28 08:20:25;;;;;;;1999.90;999.90;;;24.00;94.30;;;;;;5013592;28;20440;-70
2022/10/28 08:22:52;;;;;;;1999.90;999.90;;;24.10;94.50;;;;;;5028012;28;20462;-70
2022/10/28 08:25:18;;;;;;;1999.90;999.90;;;24.10;95.10;;;;;;5027705;28;20842;-70
2022/10/28 08:27:45;;;;;;;1999.90;999.90;;;24.00;95.20;;;;;;5025781;28;21022;-71
2022/10/28 08:30:14;;;;;;;1999.90;999.90;;;24.00;94.50;;;;;;5029004;28;20470;-71
2022/10/28 08:32:40;;;;;;;1999.90;999.90;;;24.10;95.00;;;;;;5030586;28;20460;-71
2022/10/28 08:35:08;;;;;;;1999.90;999.90;;;24.10;95.30;;;;;;5030618;28;21196;-70
2022/10/28 08:37:35;;;;;;;1999.90;999.90;;;24.10;94.40;;;;;;5024647;28;20479;-70
2022/10/28 08:40:01;;;;;;;1999.90;999.90;;;24.20;94.30;;;;;;5015918;28;20510;-70
2022/10/28 08:42:37;;;;;;;1999.90;999.90;;;24.30;94.40;;;;;;5023182;28;20464;-70
2022/10/28 08:45:23;;;;;;;1999.90;999.90;;;24.50;94.60;;;;;;5026922;28;21304;-71
2022/10/28 08:48:02;;;;;;;1999.90;999.90;;;24.50;94.50;;;;;;5028158;28;20499;-70
2022/10/28 08:50:30;;;;;;;1999.90;999.90;;;24.50;94.20;;;;;;5024649;28;20455;-70
2022/10/28 08:53:01;;;;;;;1999.90;999.90;;;24.70;93.00;;;;;;5031148;28;20491;-70
2022/10/28 08:55:33;;;;;;;1999.90;999.90;;;24.80;93.10;;;;;;5023345;28;20463;-70
2022/10/28 08:58:05;;;;;;;1999.90;999.90;;;24.90;92.50;;;;;;5024289;28;21084;-70
2022/10/28 09:00:34;;;;;;;1999.90;999.90;;;24.90;92.40;;;;;;5031293;28;20450;-71
2022/10/28 09:03:13;;;;;;;1999.90;999.90;;;25.00;92.30;;;;;;5030714;28;20472;-70
2022/10/28 09:05:42;;;;;;;1999.90;999.90;;;25.00;92.10;;;;;;5025586;28;20472;-67
2022/10/28 09:08:19;;;;;;;1999.90;999.90;;;25.10;92.10;;;;;;5016049;28;20522;-68
2022/10/28 09:11:02;;;;;;;1999.90;999.90;;;25.30;91.20;;;;;;5020821;28;20463;-68
2022/10/28 09:13:40;;;;;;;1999.90;999.90;;;25.50;90.70;;;;;;5021901;28;20466;-68
2022/10/28 09:16:14;;;;;;;1999.90;999.90;;;25.40;91.20;;;;;;5023500;28;20955;-68
2022/10/28 09:18:52;;;;;;;1999.90;999.90;;;25.30;91.10;;;;;;5030867;28;20486;-67
2022/10/28 09:21:23;;;;;;;1999.90;999.90;;;25.30;91.20;;;;;;5022374;28;20459;-68
2022/10/28 09:23:56;;;;;;;1999.90;999.90;;;25.50;91.50;;;;;;5021138;28;20439;-68
2022/10/28 09:26:34;;;;;;;1999.90;999.90;;;25.50;91.10;;;;;;5023733;28;20900;-68
2022/10/28 09:29:12;;;;;;;1999.90;999.90;;;25.40;91.50;;;;;;5031100;28;20489;-68
2022/10/28 09:31:46;;;;;;;1999.90;999.90;;;25.50;91.30;;;;;;5023539;28;20990;-68
2022/10/28 09:34:21;;;;;;;1999.90;999.90;;;25.50;91.60;;;;;;5027997;28;20977;-68
2022/10/28 09:36:54;;;;;;;1999.90;999.90;;;25.50;91.30;;;;;;5024555;28;20459;-68
2022/10/28 09:39:25;;;;;;;1999.90;999.90;;;25.60;91.40;;;;;;5029011;28;20486;-68
2022/10/28 09:41:54;;;;;;;1999.90;999.90;;;25.70;90.70;;;;;;5029497;28;20463;-68
2022/10/28 09:44:25;;;;;;;1999.90;999.90;;;25.80;90.60;;;;;;5025486;28;20476;-67
2022/10/28 09:46:56;;;;;;;1999.90;999.90;;;25.70;90.80;;;;;;5025548;28;20487;-68
2022/10/28 09:49:28;;;;;;;1999.90;999.90;;;25.50;90.50;;;;;;5019930;28;20445;-68
2022/10/28 09:52:03;;;;;;;1999.90;999.90;;;25.50;91.00;;;;;;5012009;28;20905;-68
2022/10/28 09:54:35;;;;;;;1999.90;999.90;;;25.50;91.40;;;;;;5012010;28;20443;-69
2022/10/28 09:57:04;;;;;;;1999.90;999.90;;;25.60;91.50;;;;;;5013636;28;20464;-69
2022/10/28 09:59:30;;;;;;;1999.90;999.90;;;25.60;91.60;;;;;;5018744;28;20448;-68
2022/10/28 10:01:59;;;;;;;1999.90;999.90;;;25.60;90.80;;;;;;5012134;28;20975;-68
2022/10/28 10:04:30;;;;;;;1999.90;999.90;;;25.50;90.80;;;;;;5011651;28;20444;-68
2022/10/28 10:07:00;;;;;;;1999.90;999.90;;;25.50;90.60;;;;;;5017980;28;20475;-69
2022/10/28 10:09:28;;;;;;;1999.90;999.90;;;25.60;91.30;;;;;;5022782;28;20448;-68
2022/10/28 10:11:59;;;;;;;1999.90;999.90;;;25.70;91.20;;;;;;5031315;28;20829;-69
2022/10/28 10:14:30;;;;;;;1999.90;999.90;;;26.00;90.30;;;;;;5031070;28;20448;-68
2022/10/28 10:17:02;;;;;;;1999.90;999.90;;;26.30;87.90;;;;;;5022200;28;20952;-68
2022/10/28 10:19:59;;;;;;;1999.90;999.90;;;26.30;89.60;;;;;;5021505;28;20554;-68
2022/10/28 10:22:30;;;;;;;1999.90;999.90;;;26.40;88.80;;;;;;5019488;28;20515;-69
2022/10/28 10:24:57;;;;;;;1999.90;999.90;;;26.40;87.50;;;;;;5027292;28;20462;-68
2022/10/28 10:27:26;;;;;;;1999.90;999.90;;;26.30;88.90;;;;;;5021476;28;20494;-68
2022/10/28 10:29:54;;;;;;;1999.90;999.90;;;26.20;88.50;;;;;;5021115;28;21001;-68
2022/10/28 10:32:25;;;;;;;1999.90;999.90;;;26.30;89.70;;;;;;5011789;28;20456;-68
2022/10/28 10:35:00;;;;;;;1999.90;999.90;;;26.30;89.40;;;;;;5010826;28;20506;-68
2022/10/28 10:37:29;;;;;;;1999.90;999.90;;;26.20;89.50;;;;;;5015133;28;20506;-68
2022/10/28 10:40:06;;;;;;;1999.90;999.90;;;26.10;88.70;;;;;;5030947;28;20450;-68
2022/10/28 10:42:33;;;;;;;1999.90;999.90;;;26.10;89.00;;;;;;5030720;28;20438;-68
2022/10/28 10:45:04;;;;;;;1999.90;999.90;;;26.00;89.70;;;;;;5030778;28;20477;-68
2022/10/28 10:47:32;;;;;;;1999.90;999.90;;;25.90;90.00;;;;;;5021311;28;20882;-68
2022/10/28 10:50:20;;;;;;;1999.90;999.90;;;26.00;89.90;;;;;;5032815;23;20513;-69
2022/10/28 10:52:53;;;;;;;1999.90;999.90;;;26.10;90.10;;;;;;5004178;28;20468;-69
2022/10/28 10:55:23;;;;;;;1999.90;999.90;;;26.10;89.00;;;;;;5002465;28;20440;-68
2022/10/28 10:57:50;;;;;;;1999.90;999.90;;;26.10;89.00;;;;;;5008298;28;20495;-70
2022/10/28 11:00:21;;;;;;;1999.90;999.90;;;26.10;88.20;;;;;;4994622;28;20485;-68
2022/10/28 11:02:51;;;;;;;1999.90;999.90;;;26.10;89.50;;;;;;4992249;28;20456;-68
2022/10/28 11:05:21;;;;;;;1999.90;999.90;;;26.10;90.10;;;;;;4992772;28;20453;-68
2022/10/28 11:07:50;;;;;;;1999.90;999.90;;;26.10;89.60;;;;;;4993340;28;20469;-68
2022/10/28 11:10:22;;;;;;;1999.90;999.90;;;26.20;90.30;;;;;;4989185;28;20616;-68
2022/10/28 11:12:52;;;;;;;1999.90;999.90;;;26.10;90.00;;;;;;4987827;28;20464;-69
2022/10/28 11:15:25;;;;;;;1999.90;999.90;;;25.90;89.90;;;;;;4984163;28;20469;-67
2022/10/28 11:17:59;;;;;;;1999.90;999.90;;;25.90;90.00;;;;;;4988618;28;21029;-68
2022/10/28 11:20:29;;;;;;;1999.90;999.90;;;25.90;90.70;;;;;;4984206;28;20495;-68
2022/10/28 11:23:28;;;;;;;1999.90;999.90;;;25.90;90.20;;;;;;4989461;28;20672;-67
2022/10/28 11:25:58;;;;;;;1999.90;999.90;;;25.90;90.20;;;;;;4991401;28;20468;-68
2022/10/28 11:28:51;;;;;;;1999.90;999.90;;;25.90;90.10;;;;;;4998972;28;20864;-68
2022/10/28 11:31:38;;;;;;;1999.90;999.90;;;25.90;90.50;;;;;;4979756;28;20484;-67
2022/10/28 11:34:30;;;;;;;1999.90;999.90;;;25.40;90.30;;;;;;5000197;28;20439;-68
2022/10/28 11:37:08;;;;;;;1999.90;999.90;;;25.70;90.50;;;;;;5011260;28;20448;-68
2022/10/28 11:39:43;;;;;;;1999.90;999.90;;;25.70;90.70;;;;;;5009157;28;20475;-69
2022/10/28 11:42:23;;;;;;;1999.90;999.90;;;25.70;90.60;;;;;;4991243;28;20797;-68
2022/10/28 11:44:55;;;;;;;1999.90;999.90;;;25.50;91.40;;;;;;4989521;28;20462;-68
2022/10/28 11:47:44;;;;;;;1999.90;999.90;;;25.30;91.40;;;;;;5001933;28;20559;-68
2022/10/28 11:50:34;;;;;;;1999.90;999.90;;;25.30;91.70;;;;;;5004491;28;20492;-68
2022/10/28 11:53:26;;;;;;;1999.90;999.90;;;25.30;91.00;;;;;;4990802;28;20441;-68
2022/10/28 11:55:59;;;;;;;1999.90;999.90;;;25.40;91.60;;;;;;4989860;28;20786;-67
2022/10/28 11:58:37;;;;;;;1999.90;999.90;;;25.30;91.20;;;;;;4990958;28;21135;-68
2022/10/28 12:01:36;;;;;;;1999.90;999.90;;;25.40;91.80;;;;;;4991695;28;20866;-68
2022/10/28 12:04:20;;;;;;;1999.90;999.90;;;25.50;91.20;;;;;;4988430;28;20456;-69
2022/10/28 12:07:06;;;;;;;1999.90;999.90;;;25.70;91.50;;;;;;4990329;28;20448;-68
2022/10/28 12:09:44;;;;;;;1999.90;999.90;;;25.80;90.80;;;;;;4990231;28;20477;-68
2022/10/28 12:12:21;;;;;;;1999.90;999.90;;;25.90;91.60;;;;;;4989018;28;20451;-68
2022/10/28 12:14:56;;;;;;;1999.90;999.90;;;25.90;91.60;;;;;;4990665;28;20902;-68